EST,Max TemperatureF,Mean TemperatureF,Min TemperatureF,Max Dew PointF,MeanDew PointF,Min DewpointF,Max Humidity, Mean Humidity, Min Humidity, Max Sea Level PressureIn, Mean Sea Level PressureIn, Min Sea Level PressureIn, Max VisibilityMiles, Mean VisibilityMiles, Min VisibilityMiles, Max Wind SpeedMPH, Mean Wind SpeedMPH, Max Gust SpeedMPH,PrecipitationIn, CloudCover, Events, WindDirDegrees
2014-2-1,42,35,28,27,22,17,82,62,41,30.34,30.23,30.04,10,10,7,9,2,,0.00,1,,143
2014-2-2,52,41,30,36,33,29,100,79,43,30.08,29.96,29.89,10,6,0,10,3,,0.00,6,Fog-Rain,311
2014-2-3,37,31,21,30,25,16,93,82,67,30.32,30.16,30.09,10,4,0,15,9,,0.43,6,Fog-Rain-Snow,354
2014-2-4,33,25,17,21,16,11,81,69,54,30.48,30.39,30.27,10,10,7,13,7,,0.00,1,,333
2014-2-5,33,30,26,30,26,21,93,87,72,30.25,29.92,29.64,10,3,0,14,8,23,1.26,8,Fog-Rain-Snow,31
2014-2-6,26,22,19,19,14,11,81,71,58,30.28,30.22,30.01,10,10,10,17,11,20,0.00,2,,323
2014-2-7,32,26,19,15,11,8,81,55,38,30.32,30.26,30.21,10,10,9,12,6,,0.00,0,,270
2014-2-8,27,22,17,10,2,-3,58,41,31,30.34,30.25,30.15,10,10,10,10,6,,0.00,2,,290
2014-2-9,28,20,12,21,9,1,92,62,41,30.20,30.09,29.99,10,7,1,8,4,,0.08,3,Snow,308
2014-2-10,26,22,17,17,8,3,89,57,44,30.27,30.13,29.99,10,10,7,18,9,23,0.00,0,,299
2014-2-11,23,16,10,4,2,-2,70,53,40,30.48,30.36,30.27,10,10,10,14,7,17,0.00,0,,314
2014-2-12,23,16,8,15,2,-4,75,56,36,30.58,30.48,30.31,10,10,10,10,6,,0.00,1,,31
2014-2-13,34,28,23,31,28,17,93,87,78,30.29,29.61,28.99,10,2,0,21,12,32,1.06,8,Fog-Rain-Snow-Thunderstorm,38
2014-2-14,41,34,28,30,24,20,93,71,45,29.78,29.31,28.97,10,7,1,22,16,34,0.13,5,Rain-Snow,291
2014-2-15,36,30,25,28,22,13,89,70,55,29.79,29.68,29.57,10,7,1,22,7,32,0.01,7,Snow,17
2014-2-16,26,22,19,16,10,6,78,59,47,30.08,29.92,29.73,10,9,2,21,16,31,0.00,3,Snow,300
2014-2-17,28,22,15,6,0,-5,62,41,25,30.38,30.31,30.11,10,10,10,17,10,,0.00,0,,316
2014-2-18,37,29,21,32,21,-1,100,76,38,30.33,30.09,29.92,10,6,0,12,5,20,0.11,5,Rain-Snow,103
2014-2-19,41,30,21,39,30,17,100,86,65,30.11,29.86,29.68,10,4,0,21,4,24,0.21,4,Fog-Rain,259
2014-2-20,46,38,30,34,26,17,96,63,31,30.25,30.15,30.02,10,8,1,17,7,24,0.03,3,Rain,145
2014-2-21,45,40,35,41,37,32,100,93,73,30.03,29.85,29.64,10,3,0,17,8,23,0.09,4,Fog-Rain-Thunderstorm,99
2014-2-22,52,43,34,32,23,17,86,50,25,30.04,29.98,29.93,10,10,9,13,3,23,0.00,0,,228
2014-2-23,50,42,33,29,26,24,78,52,36,30.01,29.93,29.83,10,10,10,9,4,30,0.00,3,Rain,292
2014-2-24,43,34,23,26,12,5,60,45,37,30.07,29.91,29.79,10,10,10,23,11,32,0.00,2,,304
2014-2-25,28,24,19,16,9,5,64,54,46,30.07,30.00,29.92,10,9,2,18,10,29,0.00,3,Snow,290
2014-2-26,27,20,12,19,7,-7,85,56,32,29.98,29.89,29.82,10,7,0,22,5,23,0.00,3,Snow,295
2014-2-27,28,19,10,13,0,-13,60,44,31,30.08,29.78,29.60,10,9,2,28,7,38,0.00,2,Snow,273
2014-2-28,19,13,7,1,-7,-13,61,42,29,30.44,30.34,30.12,10,10,10,17,11,29,0.00,0,,302